Time;durP1;ratioP1;P1;durP2;ratioP2;P2;SDS_P1;SDS_P2;PMS_P1;PMS_P2;Temp;Humidity;BMP_temperature;BMP_pressure;BME280_temperature;BME280_humidity;BME280_pressure;Samples;Min_cycle;Max_cycle;Signal;HPM_P1;HPM_P2
2022/09/21 00:01:09;;;;;;;7.23;5.90;;;;;;;7.98;100.00;153409.41;5016370;28;20453;-76
2022/09/21 00:03:36;;;;;;;7.97;5.90;;;;;;;7.95;100.00;153401.63;5027737;28;20451;-76
2022/09/21 00:06:03;;;;;;;9.17;5.93;;;;;;;7.87;100.00;153380.97;5011762;28;20523;-76
2022/09/21 00:08:32;;;;;;;7.93;5.60;;;;;;;7.77;100.00;153355.13;5019894;28;20439;-75
2022/09/21 00:10:59;;;;;;;6.97;6.27;;;;;;;7.67;100.00;153329.31;5027723;28;20479;-75
2022/09/21 00:13:27;;;;;;;9.03;5.70;;;;;;;7.62;100.00;153316.41;5019496;28;20550;-75
2022/09/21 00:15:54;;;;;;;7.40;5.07;;;;;;;7.58;100.00;153306.03;5010279;28;21151;-76
2022/09/21 00:18:21;;;;;;;7.20;6.23;;;;;;;7.53;100.00;153293.13;5020784;28;20805;-76
2022/09/21 00:20:47;;;;;;;6.33;5.73;;;;;;;7.52;100.00;153291.81;5020419;28;20437;-76
2022/09/21 00:23:14;;;;;;;7.63;5.50;;;;;;;7.49;100.00;153284.13;5022710;28;20993;-76
2022/09/21 00:25:42;;;;;;;6.77;6.07;;;;;;;7.49;100.00;153282.81;5031967;28;20518;-75
2022/09/21 00:28:09;;;;;;;9.23;6.03;;;;;;;7.47;100.00;153277.63;5009257;28;20452;-75
2022/09/21 00:30:35;;;;;;;8.00;5.60;;;;;;;7.44;100.00;153269.91;4995457;28;20472;-76
2022/09/21 00:33:02;;;;;;;13.47;7.90;;;;;;;7.41;100.00;153262.16;5012506;28;20494;-75
2022/09/21 00:35:29;;;;;;;8.10;6.30;;;;;;;7.39;100.00;153258.25;5030227;28;20479;-75
2022/09/21 00:37:55;;;;;;;6.47;5.17;;;;;;;7.36;100.00;153251.78;5029939;28;20476;-76
2022/09/21 00:40:22;;;;;;;6.10;5.23;;;;;;;7.35;100.00;153247.94;5030959;28;20519;-76
2022/09/21 00:42:50;;;;;;;7.30;5.80;;;;;;;7.33;100.00;153242.78;5026324;28;20935;-76
2022/09/21 00:45:20;;;;;;;6.20;5.03;;;;;;;7.31;100.00;153238.88;5013776;28;20445;-76
2022/09/21 00:47:49;;;;;;;5.87;5.03;;;;;;;7.25;100.00;153222.13;5018524;28;20647;-76
2022/09/21 00:50:18;;;;;;;6.40;5.30;;;;;;;7.22;100.00;153215.66;5030044;28;20553;-76
2022/09/21 00:52:47;;;;;;;8.60;6.03;;;;;;;7.19;100.00;153207.91;5027931;28;20517;-76
2022/09/21 00:55:17;;;;;;;7.60;5.73;;;;;;;7.15;100.00;153197.56;5011158;28;20448;-76
2022/09/21 00:57:45;;;;;;;7.20;5.93;;;;;;;7.11;100.00;153187.25;5010424;28;20956;-76
2022/09/21 01:00:13;;;;;;;6.60;5.40;;;;;;;7.11;100.00;153185.94;5011670;28;20423;-75
2022/09/21 01:02:40;;;;;;;8.50;5.53;;;;;;;7.08;100.00;153178.19;5012029;28;20452;-76
2022/09/21 01:05:08;;;;;;;8.70;5.97;;;;;;;7.06;100.00;153174.34;5015036;28;20522;-76
2022/09/21 01:07:37;;;;;;;6.13;5.20;;;;;;;7.07;100.00;153175.66;5025438;28;20449;-75
2022/09/21 01:10:08;;;;;;;6.53;5.60;;;;;;;7.02;100.00;153164.00;5014945;28;20473;-75
2022/09/21 01:12:48;;;;;;;5.90;4.67;;;;;;;7.02;100.00;153162.69;5023344;28;20475;-76
2022/09/21 01:15:23;;;;;;;7.47;5.30;;;;;;;7.03;100.00;153166.59;5029914;28;20442;-75
2022/09/21 01:17:53;;;;;;;5.70;5.00;;;;;;;6.98;100.00;153153.69;5011138;28;20452;-76
2022/09/21 01:21:03;;;;;;;8.00;6.10;;;;;;;6.97;100.00;153149.78;5023808;28;20446;-75
2022/09/21 01:24:04;;;;;;;7.23;5.80;;;;;;;6.91;100.00;153134.34;4988413;28;20544;-76
2022/09/21 01:26:44;;;;;;;5.70;4.73;;;;;;;6.92;100.00;153136.88;5030303;28;20446;-76
2022/09/21 01:29:19;;;;;;;6.80;5.47;;;;;;;6.89;100.00;153130.44;5013072;28;20470;-75
2022/09/21 01:31:51;;;;;;;6.00;4.87;;;;;;;6.84;100.00;153117.53;5029207;28;20479;-76
2022/09/21 01:34:24;;;;;;;7.70;6.10;;;;;;;6.85;100.00;153120.13;5012002;28;20445;-75
2022/09/21 01:36:53;;;;;;;7.20;5.87;;;;;;;6.84;100.00;153116.22;5014409;28;20443;-75
2022/09/21 01:39:21;;;;;;;10.77;6.50;;;;;;;6.82;100.00;153112.38;5050005;28;20466;-76
2022/09/21 01:41:50;;;;;;;7.33;5.90;;;;;;;6.81;100.00;153109.78;5032497;28;20450;-76
2022/09/21 01:44:20;;;;;;;8.77;7.03;;;;;;;6.82;100.00;153112.38;5050996;28;20820;-75
2022/09/21 01:46:47;;;;;;;8.43;6.50;;;;;;;6.83;100.00;153114.94;5038461;28;20796;-75
2022/09/21 01:49:17;;;;;;;9.53;6.83;;;;;;;6.80;100.00;153107.22;5025990;28;20811;-76
2022/09/21 01:51:48;;;;;;;8.10;6.40;;;;;;;6.77;100.00;153098.19;5021000;28;20576;-75
2022/09/21 01:54:20;;;;;;;9.97;7.03;;;;;;;6.78;100.00;153100.78;5036149;28;20949;-75
2022/09/21 01:56:50;;;;;;;10.93;6.47;;;;;;;6.75;100.00;153094.31;5025107;28;20460;-75
2022/09/21 01:59:22;;;;;;;9.50;7.30;;;;;;;6.73;100.00;153089.13;5043319;28;20443;-75
2022/09/21 02:01:52;;;;;;;11.10;7.10;;;;;;;6.74;100.00;153091.72;5016620;28;20444;-76
2022/09/21 02:04:19;;;;;;;9.60;6.80;;;;;;;6.72;100.00;153086.56;5016824;28;20435;-75
2022/09/21 02:06:47;;;;;;;8.50;6.20;;;;;;;6.68;100.00;153076.22;5023373;28;20451;-75
2022/09/21 02:09:14;;;;;;;8.50;7.00;;;;;;;6.67;100.00;153073.66;5037513;28;20450;-75
2022/09/21 02:11:42;;;;;;;9.47;6.97;;;;;;;6.67;100.00;153074.91;5033417;28;20471;-75
2022/09/21 02:14:10;;;;;;;8.37;6.43;;;;;;;6.66;100.00;153072.38;5047136;28;20440;-75
2022/09/21 02:16:40;;;;;;;6.70;6.00;;;;;;;6.61;100.00;153059.47;5000054;28;20455;-75
2022/09/21 02:19:13;;;;;;;7.97;6.50;;;;;;;6.59;100.00;153053.00;5015773;28;20792;-76
2022/09/21 02:21:49;;;;;;;9.50;6.63;;;;;;;6.57;100.00;153047.81;5035448;28;20416;-75
2022/09/21 02:24:22;;;;;;;6.70;5.67;;;;;;;6.53;100.00;153037.50;5018541;28;20795;-75
2022/09/21 02:26:53;;;;;;;6.87;5.83;;;;;;;6.49;100.00;153028.47;5017700;28;20461;-75
2022/09/21 02:29:23;;;;;;;7.13;5.80;;;;;;;6.50;100.00;153029.75;5036055;28;20529;-75
2022/09/21 02:31:55;;;;;;;7.70;6.77;;;;;;;6.61;100.00;153059.47;5044940;28;20482;-76
2022/09/21 02:34:28;;;;;;;9.07;5.90;;;;;;;6.56;100.00;153046.56;5035501;28;20431;-75
2022/09/21 02:36:58;;;;;;;6.67;5.70;;;;;;;6.50;100.00;153029.75;5022568;28;20582;-75
2022/09/21 02:39:30;;;;;;;6.97;6.27;;;;;;;6.45;100.00;153016.88;5015906;28;20467;-75
2022/09/21 02:42:01;;;;;;;7.27;6.23;;;;;;;6.39;100.00;153002.66;5015869;28;20789;-75
2022/09/21 02:44:32;;;;;;;7.90;5.90;;;;;;;6.35;100.00;152991.06;5021285;28;20969;-75
2022/09/21 02:47:04;;;;;;;6.70;5.53;;;;;;;6.30;100.00;152978.16;5034911;28;20543;-75
2022/09/21 02:49:33;;;;;;;9.07;6.13;;;;;;;6.28;100.00;152972.97;5032383;28;20478;-75
2022/09/21 02:52:04;;;;;;;8.57;6.17;;;;;;;6.24;100.00;152963.97;5031920;28;21092;-75
2022/09/21 02:54:32;;;;;;;6.17;5.57;;;;;;;6.23;100.00;152961.38;5033536;28;20822;-75
2022/09/21 02:57:00;;;;;;;7.90;6.13;;;;;;;6.25;100.00;152965.28;5014461;28;20452;-75
2022/09/21 02:59:27;;;;;;;10.17;6.80;;;;;;;6.31;100.00;152980.72;5033392;28;20420;-75
2022/09/21 03:01:54;;;;;;;9.90;7.53;;;;;;;6.38;100.00;153000.06;5015897;28;20448;-75
2022/09/21 03:04:23;;;;;;;10.10;8.77;;;;;;;6.42;100.00;153010.41;5014846;28;20440;-75
2022/09/21 03:06:49;;;;;;;9.43;8.47;;;;;;;6.46;100.00;153019.47;5051520;28;20470;-75
2022/09/21 03:09:17;;;;;;;10.70;8.57;;;;;;;6.44;100.00;153014.28;5035160;28;20430;-75
2022/09/21 03:11:44;;;;;;;13.33;9.87;;;;;;;6.42;100.00;153009.13;5035117;28;20474;-75
2022/09/21 03:14:10;;;;;;;12.70;9.97;;;;;;;6.43;100.00;153013.03;5018184;28;20440;-75
2022/09/21 03:16:38;;;;;;;13.33;10.77;;;;;;;6.41;100.00;153006.53;5042980;28;20423;-76
2022/09/21 03:19:05;;;;;;;11.90;10.00;;;;;;;6.42;100.00;153009.13;5040760;28;20531;-75
2022/09/21 03:21:33;;;;;;;10.33;8.83;;;;;;;6.42;100.00;153009.13;5024970;28;20447;-75
2022/09/21 03:24:00;;;;;;;12.10;9.10;;;;;;;6.43;100.00;153013.03;5014530;28;20475;-75
2022/09/21 03:26:26;;;;;;;10.30;8.70;;;;;;;6.41;100.00;153006.53;5015605;28;20761;-75
2022/09/21 03:28:53;;;;;;;9.90;7.77;;;;;;;6.38;100.00;153000.06;5032923;28;20451;-75
2022/09/21 03:31:21;;;;;;;9.40;7.53;;;;;;;6.33;100.00;152987.16;5032783;28;20467;-75
2022/09/21 03:33:47;;;;;;;10.37;8.53;;;;;;;6.29;100.00;152976.88;5023258;28;20850;-75
2022/09/21 03:36:14;;;;;;;8.60;6.90;;;;;;;6.28;100.00;152974.28;5015160;28;20946;-75
2022/09/21 03:38:43;;;;;;;9.60;7.67;;;;;;;6.24;100.00;152962.66;5032680;28;20463;-75
2022/09/21 03:41:10;;;;;;;13.13;9.73;;;;;;;6.26;100.00;152967.81;5025478;28;20448;-75
2022/09/21 03:43:36;;;;;;;14.30;9.10;;;;;;;6.16;100.00;152942.03;5033258;28;20455;-75
2022/09/21 03:46:03;;;;;;;11.57;10.37;;;;;;;6.12;100.00;152932.97;5014932;28;20448;-75
2022/09/21 03:48:31;;;;;;;12.70;10.60;;;;;;;6.06;100.00;152918.78;5021772;28;20538;-75
2022/09/21 03:50:58;;;;;;;12.47;9.77;;;;;;;6.02;100.00;152908.50;5034268;28;20467;-75
2022/09/21 03:53:24;;;;;;;13.17;11.53;;;;;;;5.99;100.00;152900.75;5018828;28;20447;-76
2022/09/21 03:55:52;;;;;;;14.40;11.27;;;;;;;5.95;100.00;152890.44;5014630;28;20527;-75
2022/09/21 03:58:19;;;;;;;16.70;10.70;;;;;;;5.94;100.00;152887.84;5019523;28;20452;-75
2022/09/21 04:00:46;;;;;;;13.40;11.27;;;;;;;5.91;100.00;152878.81;5046123;28;20808;-75
2022/09/21 04:03:12;;;;;;;13.43;10.53;;;;;;;5.88;100.00;152871.06;5032907;28;20891;-75
2022/09/21 04:05:39;;;;;;;11.53;10.17;;;;;;;5.86;100.00;152867.22;5046948;28;20903;-75
2022/09/21 04:08:07;;;;;;;11.17;9.57;;;;;;;5.86;100.00;152867.22;5044962;28;20612;-75
2022/09/21 04:10:33;;;;;;;10.97;8.40;;;;;;;5.91;100.00;152880.09;5035176;28;20432;-75
2022/09/21 04:13:02;;;;;;;10.93;8.20;;;;;;;5.88;100.00;152872.34;5032749;28;20482;-75
2022/09/21 04:15:29;;;;;;;11.03;9.20;;;;;;;5.85;100.00;152864.63;5013369;28;20538;-75
2022/09/21 04:17:56;;;;;;;10.30;8.93;;;;;;;5.87;100.00;152869.81;5030205;28;21004;-75
2022/09/21 04:20:23;;;;;;;12.23;7.87;;;;;;;5.85;100.00;152863.38;5017368;28;20439;-75
2022/09/21 04:22:50;;;;;;;11.63;10.03;;;;;;;5.84;100.00;152860.72;5014899;28;20515;-75
2022/09/21 04:25:17;;;;;;;10.07;8.37;;;;;;;5.80;100.00;152851.66;5045117;28;20443;-75
2022/09/21 04:27:43;;;;;;;12.70;9.10;;;;;;;5.80;100.00;152851.66;5047968;28;20447;-75
2022/09/21 04:30:13;;;;;;;13.30;10.33;;;;;;;5.73;100.00;152833.63;5012739;28;20440;-75
2022/09/21 04:32:40;;;;;;;12.07;8.90;;;;;;;5.71;100.00;152828.47;5033481;28;20446;-75
2022/09/21 04:35:07;;;;;;;11.23;9.20;;;;;;;5.71;100.00;152828.47;5051507;28;20453;-75
2022/09/21 04:37:34;;;;;;;12.77;9.60;;;;;;;5.77;100.00;152842.69;5032647;28;20593;-75
2022/09/21 04:40:01;;;;;;;10.20;9.20;;;;;;;5.76;100.00;152840.06;5032485;28;20433;-81
2022/09/21 04:42:28;;;;;;;12.40;9.40;;;;;;;5.73;100.00;152833.63;5057972;28;20485;-86
2022/09/21 04:44:54;;;;;;;12.13;9.80;;;;;;;5.82;100.00;152855.56;5011908;28;20458;-85
2022/09/21 04:47:24;;;;;;;12.53;10.70;;;;;;;5.85;100.00;152863.38;5031510;28;20498;-85
2022/09/21 04:49:51;;;;;;;13.17;11.37;;;;;;;5.82;100.00;152855.56;5013935;28;20446;-85
2022/09/21 04:52:18;;;;;;;13.00;11.17;;;;;;;5.83;100.00;152858.13;5038890;28;20450;-85
2022/09/21 04:54:44;;;;;;;12.60;10.57;;;;;;;5.96;100.00;152893.00;5032643;28;20453;-85
2022/09/21 04:57:11;;;;;;;11.67;10.37;;;;;;;5.91;100.00;152878.81;5032605;28;20455;-85
2022/09/21 04:59:38;;;;;;;12.27;10.40;;;;;;;5.88;100.00;152872.34;5031700;28;20435;-85
2022/09/21 05:02:05;;;;;;;13.73;10.67;;;;;;;5.86;100.00;152867.22;5035025;28;20588;-86
2022/09/21 05:04:33;;;;;;;12.80;10.63;;;;;;;5.90;100.00;152876.25;5034790;28;20445;-85
2022/09/21 05:06:59;;;;;;;14.33;10.53;;;;;;;5.83;100.00;152858.13;5030857;28;20454;-86
2022/09/21 05:12:10;;;;;;;13.83;10.00;;;;;;;5.76;100.00;152840.06;5012402;28;20969;-85
2022/09/21 05:14:37;;;;;;;14.93;9.57;;;;;;;5.67;100.00;152818.16;5030278;28;20439;-85
2022/09/21 05:17:03;;;;;;;11.03;9.40;;;;;;;5.61;100.00;152802.72;5035696;28;20527;-85
2022/09/21 05:19:30;;;;;;;11.00;9.67;;;;;;;5.60;100.00;152798.81;5050654;28;20431;-85
2022/09/21 05:21:58;;;;;;;10.67;9.50;;;;;;;5.59;100.00;152797.50;5031789;28;20501;-85
2022/09/21 05:24:25;;;;;;;12.03;10.07;;;;;;;5.58;100.00;152794.97;5031819;28;20436;-85
2022/09/21 05:26:51;;;;;;;12.00;10.20;;;;;;;5.56;100.00;152789.75;5048139;28;20864;-85
2022/09/21 05:29:18;;;;;;;10.73;9.40;;;;;;;5.56;100.00;152788.50;5038562;28;20463;-85
2022/09/21 05:31:48;;;;;;;14.47;10.17;;;;;;;5.54;100.00;152785.91;5017550;28;20462;-85
2022/09/21 05:34:30;;;;;;;12.20;10.50;;;;;;;5.55;100.00;152787.22;5040930;28;20435;-85
2022/09/21 05:37:02;;;;;;;13.43;9.80;;;;;;;5.52;100.00;152780.78;5036331;28;20458;-84
2022/09/21 05:39:29;;;;;;;12.80;10.67;;;;;;;5.57;100.00;152791.06;5031754;28;20436;-85
2022/09/21 05:41:57;;;;;;;14.27;11.30;;;;;;;5.60;100.00;152800.09;5027302;28;20478;-85
2022/09/21 05:44:24;;;;;;;14.40;10.30;;;;;;;5.65;100.00;152811.69;5014733;28;20542;-85
2022/09/21 05:46:57;;;;;;;12.60;10.70;;;;;;;5.65;100.00;152813.00;5033270;28;20546;-85
2022/09/21 05:49:32;;;;;;;13.47;10.10;;;;;;;5.70;100.00;152825.88;5016218;28;20799;-85
2022/09/21 05:52:04;;;;;;;11.80;9.67;;;;;;;5.73;100.00;152833.63;5016311;28;20439;-86
2022/09/21 05:54:42;;;;;;;10.50;8.80;;;;;;;5.78;100.00;152846.53;5038482;28;20521;-86
2022/09/21 05:57:15;;;;;;;10.83;8.77;;;;;;;5.84;100.00;152862.00;5047565;28;20439;-86
2022/09/21 05:59:54;;;;;;;11.17;8.70;;;;;;;5.91;100.00;152880.09;5034468;28;20448;-86
2022/09/21 06:02:30;;;;;;;9.90;8.67;;;;;;;5.97;100.00;152895.59;5053653;28;20694;-86
2022/09/21 06:04:58;;;;;;;11.90;9.17;;;;;;;6.05;100.00;152914.94;5035628;28;20803;-86
2022/09/21 06:07:26;;;;;;;13.60;8.97;;;;;;;6.12;100.00;152934.28;5036552;28;20551;-87
2022/09/21 06:09:52;;;;;;;11.57;9.37;;;;;;;6.18;100.00;152947.19;5018050;28;20803;-87
2022/09/21 06:12:19;;;;;;;11.83;9.70;;;;;;;6.31;100.00;152980.72;5032836;28;20453;-87
2022/09/21 06:14:46;;;;;;;9.00;8.10;;;;;;;6.56;100.00;153045.25;5046939;28;20438;-86
2022/09/21 06:17:13;;;;;;;12.30;8.40;;;;;;;7.02;100.00;153162.69;5016816;28;20449;-87
2022/09/21 06:19:39;;;;;;;9.97;7.37;;;;;;;7.48;100.00;153281.50;5035277;28;20443;-87
2022/09/21 06:22:06;;;;;;;9.47;8.43;;;;;;;7.87;100.00;153380.97;5036449;28;20539;-87
2022/09/21 06:24:34;;;;;;;10.17;7.80;;;;;;;8.23;100.00;153472.72;5044949;28;20523;-86
2022/09/21 06:27:01;;;;;;;10.47;8.30;;;;;;;8.44;100.00;153528.34;5016929;28;20435;-87
2022/09/21 06:29:27;;;;;;;10.30;7.30;;;;;;;8.70;100.00;153592.97;5017249;28;20431;-87
2022/09/21 06:31:54;;;;;;;9.33;7.47;;;;;;;8.91;100.00;153647.28;5016835;28;20432;-87
2022/09/21 06:34:21;;;;;;;8.70;7.57;;;;;;;9.13;100.00;153705.44;5034648;28;20622;-87
2022/09/21 06:36:47;;;;;;;9.57;6.90;;;;;;;9.27;100.00;153740.38;5016397;28;20802;-87
2022/09/21 06:39:14;;;;;;;8.90;7.80;;;;;;;9.48;99.59;153794.69;5034446;28;20471;-87
2022/09/21 06:41:42;;;;;;;8.03;7.20;;;;;;;9.75;99.75;153863.28;5020012;28;20444;-87
2022/09/21 06:44:10;;;;;;;8.83;7.33;;;;;;;9.88;96.98;153896.91;5038538;28;20459;-87
2022/09/21 06:46:36;;;;;;;8.50;6.60;;;;;;;10.15;96.62;153965.56;5047576;28;20467;-87
2022/09/21 06:49:03;;;;;;;7.97;6.80;;;;;;;10.40;95.34;154030.31;5034955;28;20470;-87
2022/09/21 06:51:30;;;;;;;9.07;7.50;;;;;;;10.71;94.15;154110.56;5034313;28;20435;-87
2022/09/21 06:53:57;;;;;;;8.67;7.70;;;;;;;10.93;92.44;154167.53;5032369;28;20451;-87
2022/09/21 06:56:24;;;;;;;8.00;7.17;;;;;;;10.92;89.63;154164.97;5016209;28;20444;-87
2022/09/21 06:58:53;;;;;;;8.30;6.63;;;;;;;11.15;91.56;154221.94;5016860;28;20483;-87
2022/09/21 07:01:20;;;;;;;10.00;6.03;;;;;;;11.49;89.32;154310.06;5031854;28;20423;-87
2022/09/21 07:03:49;;;;;;;7.23;6.53;;;;;;;11.72;87.36;154368.41;5034070;28;20829;-87
2022/09/21 07:06:16;;;;;;;6.40;5.80;;;;;;;11.89;84.24;154413.75;5033012;28;20726;-88
2022/09/21 07:08:43;;;;;;;7.60;6.90;;;;;;;12.03;84.54;154450.06;5052975;28;20439;-88
2022/09/21 07:11:10;;;;;;;8.30;6.67;;;;;;;12.27;83.92;154509.69;5053577;28;20438;-88
2022/09/21 07:13:37;;;;;;;9.10;6.40;;;;;;;12.48;82.57;154564.16;5035349;28;20431;-88
2022/09/21 07:16:06;;;;;;;8.33;7.27;;;;;;;12.38;82.91;154539.53;5031487;28;20442;-88
2022/09/21 07:18:33;;;;;;;9.70;6.67;;;;;;;12.63;82.18;154603.03;5032730;28;20849;-89
2022/09/21 07:21:02;;;;;;;7.27;5.70;;;;;;;12.76;80.74;154636.81;5015693;28;20439;-89
2022/09/21 07:23:29;;;;;;;7.10;6.40;;;;;;;13.06;80.60;154714.59;5033540;28;20494;-89
2022/09/21 07:25:56;;;;;;;6.60;5.47;;;;;;;13.28;77.89;154771.75;5054148;28;20430;-88
2022/09/21 07:28:22;;;;;;;8.70;6.47;;;;;;;13.32;77.56;154782.13;5071985;28;20445;-88
2022/09/21 07:30:49;;;;;;;7.60;5.30;;;;;;;13.56;77.59;154841.78;5073326;28;20432;-89
2022/09/21 07:33:17;;;;;;;6.20;5.60;;;;;;;13.79;76.44;154901.53;5061604;28;20442;-89
2022/09/21 07:35:51;;;;;;;6.87;4.40;;;;;;;13.83;75.12;154911.91;4999428;28;20458;-89
2022/09/21 07:38:17;;;;;;;6.47;4.93;;;;;;;14.13;75.40;154989.81;5015426;28;20468;-88
2022/09/21 07:40:44;;;;;;;5.30;4.47;;;;;;;14.18;73.44;155002.78;5018261;28;20451;-88
2022/09/21 07:43:11;;;;;;;4.43;3.80;;;;;;;14.21;73.52;155010.59;5040773;28;20507;-88
2022/09/21 07:45:37;;;;;;;5.20;3.70;;;;;;;14.05;73.47;154969.03;5042105;28;20458;-89
2022/09/21 07:48:04;;;;;;;5.50;4.03;;;;;;;14.33;73.09;155041.78;5024807;28;20446;-89
2022/09/21 07:50:33;;;;;;;5.13;3.87;;;;;;;14.51;72.13;155088.53;5044709;28;20474;-89
2022/09/21 07:53:00;;;;;;;4.53;3.80;;;;;;;14.61;72.26;155113.25;5030110;28;20498;-89
2022/09/21 07:55:27;;;;;;;6.30;4.07;;;;;;;14.91;72.98;155189.84;5032206;28;20463;-89
2022/09/21 08:00:38;;;;;;;4.23;3.70;;;;;;;15.18;70.42;155260.00;5016858;28;20443;-89
2022/09/21 08:03:05;;;;;;;4.57;3.50;;;;;;;14.87;71.64;155179.47;5042090;28;20471;-89
2022/09/21 08:05:33;;;;;;;4.10;3.70;;;;;;;14.54;71.75;155096.31;5039297;28;20448;-89
2022/09/21 08:08:00;;;;;;;5.07;4.13;;;;;;;14.27;73.38;155026.13;5026190;28;20541;-89
2022/09/21 08:10:27;;;;;;;5.40;3.50;;;;;;;14.67;71.82;155127.53;5025638;28;20502;-89
2022/09/21 08:12:54;;;;;;;10.50;4.03;;;;;;;14.40;73.80;155059.94;4998771;28;20927;-89
2022/09/21 08:15:21;;;;;;;8.07;3.67;;;;;;;14.44;74.07;155070.38;5033208;28;20554;-89
2022/09/21 08:17:49;;;;;;;4.33;3.83;;;;;;;15.01;73.08;155215.88;5017568;28;20953;-89
2022/09/21 08:20:16;;;;;;;3.23;2.87;;;;;;;15.32;71.10;155296.41;5052923;28;20455;-89
2022/09/21 08:22:44;;;;;;;4.37;3.97;;;;;;;15.20;69.81;155265.19;5016151;28;20476;-89
2022/09/21 08:25:10;;;;;;;4.40;3.57;;;;;;;15.22;69.88;155270.44;5036101;28;20458;-89
2022/09/21 08:27:39;;;;;;;3.20;2.90;;;;;;;15.05;71.60;155227.53;5040533;28;20501;-89
2022/09/21 08:30:07;;;;;;;2.17;1.97;;;;;;;15.09;67.38;155237.91;5046537;28;20455;-89
2022/09/21 08:32:34;;;;;;;2.80;2.47;;;;;;;15.27;68.03;155282.13;5016247;28;20448;-88
2022/09/21 08:35:00;;;;;;;4.60;2.30;;;;;;;15.14;69.25;155250.91;5033607;28;20443;-89
2022/09/21 08:37:28;;;;;;;3.17;2.80;;;;;;;14.75;70.68;155148.25;5033619;28;20561;-88
2022/09/21 08:39:56;;;;;;;5.17;2.53;;;;;;;14.98;69.82;155208.06;5014381;28;20852;-89
2022/09/21 08:42:39;;;;;;;3.90;2.63;;;;;;;14.47;71.29;155078.16;5025781;28;20450;-89
2022/09/21 08:45:10;;;;;;;3.47;2.57;;;;;;;14.44;71.29;155070.38;5021780;28;20452;-89
2022/09/21 08:47:40;;;;;;;2.27;2.03;;;;;;;14.46;71.61;155074.25;5042382;28;20443;-89
2022/09/21 08:50:26;;;;;;;2.70;2.50;;;;;;;14.72;71.06;155141.78;5047362;28;20472;-89
2022/09/21 08:52:58;;;;;;;5.30;3.20;;;;;;;14.45;71.86;155071.69;5033711;28;20949;-89
2022/09/21 08:55:27;;;;;;;3.30;3.00;;;;;;;14.24;73.80;155017.09;5030778;28;20454;-88
2022/09/21 08:57:53;;;;;;;2.80;2.40;;;;;;;14.09;71.58;154979.41;5022690;28;20486;-88
2022/09/21 09:00:21;;;;;;;4.60;2.63;;;;;;;14.27;72.41;155026.13;5016671;28;20558;-89
2022/09/21 09:03:18;;;;;;;2.87;2.57;;;;;;;14.27;74.42;155026.13;5041517;28;20470;-89
2022/09/21 09:05:50;;;;;;;2.30;1.93;;;;;;;13.76;74.35;154893.75;5035253;28;20455;-88
2022/09/21 09:08:36;;;;;;;2.83;2.13;;;;;;;13.57;74.32;154844.41;5028462;28;20787;-88
2022/09/21 09:11:13;;;;;;;2.90;1.97;;;;;;;13.40;75.57;154801.56;5011320;28;20454;-88
2022/09/21 09:14:00;;;;;;;2.43;1.83;;;;;;;13.78;75.18;154898.91;5016515;28;20830;-88
2022/09/21 09:16:35;;;;;;;3.50;2.47;;;;;;;13.71;74.79;154880.78;5016361;28;20797;-87
2022/09/21 09:19:16;;;;;;;3.47;2.27;;;;;;;13.66;76.44;154869.06;5044475;28;20465;-88
2022/09/21 09:21:44;;;;;;;3.53;2.23;;;;;;;13.88;75.25;154924.88;5033008;28;20458;-88
2022/09/21 09:24:14;;;;;;;5.93;2.67;;;;;;;13.97;75.58;154949.56;5049264;28;20479;-88
2022/09/21 09:26:45;;;;;;;3.57;2.00;;;;;;;14.06;73.92;154970.34;5042744;28;20454;-88
2022/09/21 09:29:18;;;;;;;3.60;1.83;;;;;;;13.98;72.90;154950.81;5034206;28;20451;-88
2022/09/21 09:31:45;;;;;;;3.93;2.03;;;;;;;13.88;72.77;154924.88;5016942;28;20458;-90
2022/09/21 09:34:16;;;;;;;3.53;2.50;;;;;;;13.91;73.27;154932.66;5013879;28;20443;-90
2022/09/21 09:36:46;;;;;;;2.50;1.70;;;;;;;13.74;74.03;154888.56;5014056;28;20448;-90
2022/09/21 09:39:14;;;;;;;2.97;1.70;;;;;;;13.80;75.70;154904.09;5030882;28;20487;-89
2022/09/21 09:42:11;;;;;;;4.33;2.03;;;;;;;13.78;74.09;154898.91;5036410;28;20541;-88
2022/09/21 09:44:48;;;;;;;2.93;1.70;;;;;;;13.86;73.94;154919.69;5033219;28;20475;-88
2022/09/21 09:47:23;;;;;;;2.20;1.70;;;;;;;13.54;74.63;154836.63;5040571;28;20938;-89
2022/09/21 09:49:59;;;;;;;2.30;1.77;;;;;;;13.46;75.41;154815.84;5018186;28;20458;-89
2022/09/21 09:52:26;;;;;;;3.70;2.10;;;;;;;13.67;73.30;154870.34;5016300;28;20451;-89
2022/09/21 09:54:53;;;;;;;3.20;1.83;;;;;;;13.73;72.62;154885.94;5026046;28;20460;-89
2022/09/21 09:57:28;;;;;;;2.37;1.70;;;;;;;13.56;73.15;154841.78;5031228;28;20459;-89
2022/09/21 09:59:56;;;;;;;2.90;2.60;;;;;;;13.52;75.41;154831.44;5033207;28;20485;-89
2022/09/21 10:02:25;;;;;;;4.50;2.90;;;;;;;13.37;76.12;154795.09;5032654;28;20462;-89
2022/09/21 10:05:02;;;;;;;2.73;2.40;;;;;;;13.47;74.45;154819.78;5032752;28;20845;-89
2022/09/21 10:07:36;;;;;;;3.17;2.20;;;;;;;13.57;74.86;154844.41;5033790;28;20450;-89
2022/09/21 10:10:04;;;;;;;4.50;2.47;;;;;;;13.58;73.49;154848.28;5029525;28;21060;-89
2022/09/21 10:12:32;;;;;;;3.10;2.60;;;;;;;13.38;74.06;154797.69;5033652;28;20443;-88
2022/09/21 10:15:00;;;;;;;4.07;2.60;;;;;;;13.24;75.64;154761.34;5041216;28;20582;-89
2022/09/21 10:17:27;;;;;;;4.33;2.70;;;;;;;13.39;75.40;154799.00;5036568;28;20465;-89
2022/09/21 10:19:59;;;;;;;3.53;2.80;;;;;;;13.57;75.45;154844.41;5036837;28;20450;-89
2022/09/21 10:22:26;;;;;;;3.87;3.00;;;;;;;13.37;74.28;154795.09;5054731;28;20513;-89
2022/09/21 10:24:53;;;;;;;4.13;2.90;;;;;;;13.28;75.27;154771.75;5040836;28;20497;-89
2022/09/21 10:27:23;;;;;;;4.40;2.50;;;;;;;13.26;74.26;154765.28;5026205;28;20444;-89
2022/09/21 10:29:51;;;;;;;2.50;2.27;;;;;;;13.34;73.71;154787.28;5034931;28;20858;-89
2022/09/21 10:32:20;;;;;;;2.60;2.20;;;;;;;13.41;76.05;154805.50;5024324;28;20860;-87
2022/09/21 10:35:15;;;;;;;3.90;2.20;;;;;;;13.51;73.80;154828.81;5064870;28;20462;-87
2022/09/21 10:37:43;;;;;;;5.40;2.70;;;;;;;13.32;73.36;154782.13;5013422;28;20591;-89
2022/09/21 10:40:23;;;;;;;2.67;2.00;;;;;;;13.29;74.14;154773.06;5013700;28;20452;-89
2022/09/21 10:42:52;;;;;;;2.43;1.80;;;;;;;13.27;75.13;154767.84;5014035;28;20462;-89
2022/09/21 10:45:21;;;;;;;2.80;1.83;;;;;;;13.41;75.11;154804.19;5014332;28;20460;-89
2022/09/21 10:47:50;;;;;;;3.33;2.93;;;;;;;13.72;74.98;154883.34;5030002;28;20483;-89
2022/09/21 10:50:23;;;;;;;2.37;1.97;;;;;;;13.58;73.64;154847.03;5032039;28;20466;-89
2022/09/21 10:52:51;;;;;;;6.03;2.40;;;;;;;13.56;73.46;154841.78;5017917;28;20460;-89
2022/09/21 10:55:20;;;;;;;2.00;1.53;;;;;;;13.66;70.68;154867.78;5043782;28;20859;-89
2022/09/21 10:57:47;;;;;;;1.20;0.83;;;;;;;13.81;69.38;154906.72;5028629;28;20855;-89
2022/09/21 11:00:34;;;;;;;1.60;1.10;;;;;;;13.88;68.33;154926.19;5014430;28;20459;-89
2022/09/21 11:03:05;;;;;;;1.33;1.00;;;;;;;13.96;68.35;154945.66;5022116;28;20455;-89
2022/09/21 11:05:33;;;;;;;1.40;1.10;;;;;;;13.91;67.45;154933.97;5016424;28;20466;-89
2022/09/21 11:08:02;;;;;;;2.20;1.13;;;;;;;13.85;67.78;154918.38;5019160;28;20487;-89
2022/09/21 11:10:45;;;;;;;1.77;0.97;;;;;;;13.95;68.99;154944.34;5025169;28;20927;-90
2022/09/21 11:13:23;;;;;;;1.67;0.97;;;;;;;14.04;67.92;154966.41;5013954;28;20499;-90
2022/09/21 11:15:55;;;;;;;1.73;1.20;;;;;;;13.98;67.88;154952.13;5012254;28;20815;-90
2022/09/21 11:18:25;;;;;;;1.07;0.77;;;;;;;14.09;66.94;154979.41;5018262;28;20444;-90
2022/09/21 11:20:56;;;;;;;1.20;1.00;;;;;;;14.20;65.24;155007.97;5016855;28;20456;-91
2022/09/21 11:23:42;;;;;;;1.50;1.00;;;;;;;14.35;67.41;155045.72;5012433;28;20981;-90
2022/09/21 11:26:12;;;;;;;1.20;1.03;;;;;;;14.17;64.73;155000.19;5013603;28;20445;-89
2022/09/21 11:28:43;;;;;;;2.40;1.10;;;;;;;14.25;66.22;155020.94;5007136;28;20483;-90
2022/09/21 11:31:28;;;;;;;1.80;1.17;;;;;;;14.54;67.93;155096.31;5032731;28;20448;-91
2022/09/21 11:34:19;;;;;;;1.50;1.30;;;;;;;14.61;66.39;155113.25;5022298;28;20944;-91
2022/09/21 11:36:56;;;;;;;3.40;1.20;;;;;;;14.58;66.09;155105.44;5012147;28;20448;-91
2022/09/21 11:39:30;;;;;;;1.57;1.10;;;;;;;14.68;65.75;155131.41;5005272;28;20471;-90